createdAt,value
2023-06-24T00:00:19.707Z,16.49
2023-06-24T00:01:19.735Z,16.49
2023-06-24T00:02:19.708Z,16.49
2023-06-24T00:03:19.873Z,16.45
2023-06-24T00:04:19.677Z,16.41
2023-06-24T00:05:19.641Z,16.42
2023-06-24T00:06:19.775Z,16.40
2023-06-24T00:07:19.664Z,16.37
2023-06-24T00:08:19.668Z,16.35
2023-06-24T00:09:19.587Z,16.35
2023-06-24T00:10:19.590Z,16.34
2023-06-24T00:11:19.558Z,16.34
2023-06-24T00:12:19.567Z,16.34
2023-06-24T00:13:19.566Z,16.33
2023-06-24T00:14:19.546Z,16.30
2023-06-24T00:15:19.577Z,16.30
2023-06-24T00:16:19.525Z,16.26
2023-06-24T00:17:21.493Z,16.22
2023-06-24T00:18:19.586Z,16.15
2023-06-24T00:19:19.473Z,16.14
2023-06-24T00:20:20.601Z,16.11
2023-06-24T00:21:19.481Z,16.11
2023-06-24T00:22:19.474Z,16.09
2023-06-24T00:23:19.429Z,16.07
2023-06-24T00:24:19.448Z,16.06
2023-06-24T00:25:19.409Z,16.07
2023-06-24T00:26:19.427Z,16.04
2023-06-24T00:27:19.401Z,16.06
2023-06-24T00:28:19.418Z,16.07
2023-06-24T00:29:19.373Z,16.07
2023-06-24T00:30:19.381Z,16.06
2023-06-24T00:31:19.401Z,16.04
2023-06-24T00:32:19.353Z,16.03
2023-06-24T00:33:19.345Z,16.01
2023-06-24T00:34:19.362Z,16.03
2023-06-24T00:35:19.320Z,16.04
2023-06-24T00:36:19.333Z,16.03
2023-06-24T00:37:20.000Z,16.04
2023-06-24T00:38:19.306Z,16.03
2023-06-24T00:39:19.251Z,16.01
2023-06-24T00:40:19.259Z,16.00
2023-06-24T00:41:20.188Z,16.01
2023-06-24T00:42:19.277Z,16.00
2023-06-24T00:43:20.194Z,15.97
2023-06-24T00:44:19.294Z,16.00
2023-06-24T00:45:19.231Z,15.99
2023-06-24T00:46:19.197Z,15.97
2023-06-24T00:47:19.197Z,15.97
2023-06-24T00:48:19.202Z,15.99
2023-06-24T00:49:19.142Z,15.97
2023-06-24T00:50:19.188Z,15.99
2023-06-24T00:51:19.127Z,15.99
2023-06-24T00:52:19.132Z,15.99
2023-06-24T00:53:19.112Z,15.96
2023-06-24T00:54:19.168Z,15.99
2023-06-24T00:55:19.088Z,15.97
2023-06-24T00:56:19.096Z,15.97
2023-06-24T00:57:19.101Z,15.96
2023-06-24T00:58:19.078Z,15.96
2023-06-24T00:59:19.088Z,15.93
2023-06-24T01:00:21.547Z,15.92
2023-06-24T01:01:19.073Z,15.88
2023-06-24T01:02:19.129Z,15.85
2023-06-24T01:03:19.177Z,15.84
2023-06-24T01:04:19.016Z,15.82
2023-06-24T01:05:18.968Z,15.81
2023-06-24T01:06:18.980Z,15.78
2023-06-24T01:07:19.015Z,15.76
2023-06-24T01:08:18.981Z,15.75
2023-06-24T01:09:18.919Z,15.72
2023-06-24T01:10:18.954Z,15.68
2023-06-24T01:11:18.912Z,15.70
2023-06-24T01:12:18.920Z,15.67
2023-06-24T01:13:18.895Z,15.68
2023-06-24T01:14:18.918Z,15.66
2023-06-24T01:15:18.889Z,15.68
2023-06-24T01:16:18.873Z,15.67
2023-06-24T01:17:18.901Z,15.67
2023-06-24T01:18:18.866Z,15.66
2023-06-24T01:19:18.802Z,15.67
2023-06-24T01:20:18.854Z,15.67
2023-06-24T01:21:18.786Z,15.66
2023-06-24T01:22:18.827Z,15.66
2023-06-24T01:23:18.782Z,15.64
2023-06-24T01:24:18.805Z,15.64
2023-06-24T01:25:18.757Z,15.61
2023-06-24T01:26:18.765Z,15.57
2023-06-24T01:27:18.726Z,15.56
2023-06-24T01:28:18.744Z,15.54
2023-06-24T01:29:18.692Z,15.51
2023-06-24T01:30:18.746Z,15.48
2023-06-24T01:31:18.699Z,15.46
2023-06-24T01:32:18.705Z,15.46
2023-06-24T01:33:18.720Z,15.43
2023-06-24T01:34:18.698Z,15.41
2023-06-24T01:35:18.648Z,15.42
2023-06-24T01:36:18.686Z,15.41
2023-06-24T01:37:18.634Z,15.38
2023-06-24T01:38:18.639Z,15.35
2023-06-24T01:39:18.613Z,15.35
2023-06-24T01:40:18.611Z,15.33
2023-06-24T01:41:18.587Z,15.30
2023-06-24T01:42:18.594Z,15.27
2023-06-24T01:43:18.552Z,15.30
2023-06-24T01:44:18.563Z,15.27
2023-06-24T01:45:18.548Z,15.28
2023-06-24T01:46:18.615Z,15.27
2023-06-24T01:47:18.511Z,15.27
2023-06-24T01:48:18.529Z,15.26
2023-06-24T01:49:18.502Z,15.27
2023-06-24T01:50:18.496Z,15.28
2023-06-24T01:51:18.527Z,15.30
2023-06-24T01:52:18.503Z,15.30
2023-06-24T01:53:18.440Z,15.28
2023-06-24T01:54:18.449Z,15.27
2023-06-24T01:55:18.445Z,15.26
2023-06-24T01:56:18.461Z,15.23
2023-06-24T01:57:18.436Z,15.23
2023-06-24T01:58:18.560Z,15.20
2023-06-24T01:59:18.441Z,15.20
2023-06-24T02:00:18.468Z,15.19
2023-06-24T02:01:18.526Z,15.17
2023-06-24T02:02:18.414Z,15.13
2023-06-24T02:03:18.751Z,15.13
2023-06-24T02:04:18.317Z,15.13
2023-06-24T02:05:18.348Z,15.12
2023-06-24T02:06:18.291Z,15.11
2023-06-24T02:07:18.408Z,15.11
2023-06-24T02:08:18.297Z,15.09
2023-06-24T02:09:18.306Z,15.09
2023-06-24T02:10:18.283Z,15.08
2023-06-24T02:11:18.283Z,15.09
2023-06-24T02:12:18.266Z,15.08
2023-06-24T02:13:18.273Z,15.08
2023-06-24T02:14:18.212Z,15.08
2023-06-24T02:15:18.261Z,15.05
2023-06-24T02:16:18.224Z,15.06
2023-06-24T02:17:19.175Z,15.05
2023-06-24T02:18:18.203Z,15.02
2023-06-24T02:19:18.247Z,15.02
2023-06-24T02:20:18.165Z,15.01
2023-06-24T02:21:18.179Z,15.01
2023-06-24T02:22:18.138Z,15.01
2023-06-24T02:23:18.186Z,14.99
2023-06-24T02:24:18.107Z,15.01
2023-06-24T02:25:18.132Z,15.02
2023-06-24T02:26:18.114Z,15.01
2023-06-24T02:27:18.108Z,15.01
2023-06-24T02:28:18.070Z,14.99
2023-06-24T02:29:18.088Z,14.98
2023-06-24T02:30:18.071Z,14.98
2023-06-24T02:31:18.109Z,14.99
2023-06-24T02:32:18.008Z,14.95
2023-06-24T02:33:18.064Z,14.95
2023-06-24T02:34:18.000Z,14.95
2023-06-24T02:35:18.047Z,14.95
2023-06-24T02:36:17.982Z,14.95
2023-06-24T02:37:18.010Z,14.98
2023-06-24T02:38:17.959Z,14.98
2023-06-24T02:39:17.976Z,14.95
2023-06-24T02:40:17.963Z,14.95
2023-06-24T02:41:17.965Z,14.98
2023-06-24T02:42:17.918Z,14.94
2023-06-24T02:43:17.928Z,14.94
2023-06-24T02:44:17.920Z,14.91
2023-06-24T02:45:17.921Z,14.91
2023-06-24T02:46:17.906Z,14.90
2023-06-24T02:47:17.963Z,14.88
2023-06-24T02:48:17.842Z,14.91
2023-06-24T02:49:18.009Z,14.90
2023-06-24T02:50:17.852Z,14.88
2023-06-24T02:51:17.874Z,14.88
2023-06-24T02:52:17.803Z,14.88
2023-06-24T02:53:17.821Z,14.90
2023-06-24T02:54:17.780Z,14.90
2023-06-24T02:55:17.819Z,14.90
2023-06-24T02:56:17.793Z,14.88
2023-06-24T02:57:17.786Z,14.88
2023-06-24T02:58:17.764Z,14.87
2023-06-24T02:59:17.760Z,14.86
2023-06-24T03:00:17.731Z,14.86
2023-06-24T03:01:17.785Z,14.86
2023-06-24T03:02:17.701Z,14.86
2023-06-24T03:03:17.826Z,14.81
2023-06-24T03:04:17.719Z,14.83
2023-06-24T03:05:17.711Z,14.80
2023-06-24T03:06:17.663Z,14.80
2023-06-24T03:07:17.733Z,14.74
2023-06-24T03:08:17.640Z,14.72
2023-06-24T03:09:17.657Z,14.69
2023-06-24T03:10:17.604Z,14.67
2023-06-24T03:11:17.686Z,14.64
2023-06-24T03:12:17.602Z,14.60
2023-06-24T03:13:17.659Z,14.57
2023-06-24T03:14:17.568Z,14.56
2023-06-24T03:15:17.581Z,14.53
2023-06-24T03:16:17.558Z,14.52
2023-06-24T03:17:17.633Z,14.52
2023-06-24T03:18:17.576Z,14.52
2023-06-24T03:19:17.554Z,14.52
2023-06-24T03:20:17.522Z,14.54
2023-06-24T03:21:17.515Z,14.54
2023-06-24T03:22:17.502Z,14.57
2023-06-24T03:23:19.483Z,14.61
2023-06-24T03:24:17.468Z,14.65
2023-06-24T03:25:17.482Z,14.67
2023-06-24T03:26:17.441Z,14.68
2023-06-24T03:27:17.456Z,14.69
2023-06-24T03:28:17.410Z,14.69
2023-06-24T03:29:17.428Z,14.71
2023-06-24T03:30:17.424Z,14.71
2023-06-24T03:31:17.459Z,14.69
2023-06-24T03:32:17.453Z,14.71
2023-06-24T03:33:17.396Z,14.71
2023-06-24T03:34:17.396Z,14.72
2023-06-24T03:35:17.691Z,14.74
2023-06-24T03:36:17.362Z,14.74
2023-06-24T03:37:17.355Z,14.80
2023-06-24T03:38:17.345Z,14.80
2023-06-24T03:39:17.346Z,14.81
2023-06-24T03:40:17.294Z,14.83
2023-06-24T03:41:17.311Z,14.86
2023-06-24T03:42:17.278Z,14.88
2023-06-24T03:43:17.292Z,14.88
2023-06-24T03:44:17.280Z,14.93
2023-06-24T03:45:17.288Z,14.95
2023-06-24T03:46:17.274Z,14.94
2023-06-24T03:47:17.227Z,14.99
2023-06-24T03:48:17.233Z,15.03
2023-06-24T03:49:17.235Z,15.09
2023-06-24T03:50:17.166Z,15.13
2023-06-24T03:51:18.144Z,15.17
2023-06-24T03:52:17.172Z,15.24
2023-06-24T03:53:17.160Z,15.27
2023-06-24T03:54:17.191Z,15.28
2023-06-24T03:55:17.149Z,15.31
2023-06-24T03:56:17.156Z,15.35
2023-06-24T03:57:17.116Z,15.35
2023-06-24T03:58:17.083Z,15.35
2023-06-24T03:59:17.131Z,15.38
2023-06-24T04:00:17.089Z,15.41
2023-06-24T04:01:17.157Z,15.42
2023-06-24T04:02:17.050Z,15.43
2023-06-24T04:03:17.145Z,15.46
2023-06-24T04:04:17.095Z,15.52
2023-06-24T04:05:17.034Z,15.60
2023-06-24T04:06:17.018Z,15.63
2023-06-24T04:07:17.088Z,15.67
2023-06-24T04:08:17.279Z,15.70
2023-06-24T04:09:16.990Z,15.75
2023-06-24T04:10:16.974Z,15.81
2023-06-24T04:11:16.980Z,15.88
2023-06-24T04:12:16.937Z,15.94
2023-06-24T04:13:16.945Z,15.97
2023-06-24T04:14:16.955Z,16.03
2023-06-24T04:15:16.953Z,16.04
2023-06-24T04:16:17.912Z,16.06
2023-06-24T04:17:16.919Z,15.99
2023-06-24T04:18:16.897Z,15.97
2023-06-24T04:19:17.324Z,15.97
2023-06-24T04:20:16.861Z,15.96
2023-06-24T04:21:16.865Z,15.97
2023-06-24T04:22:16.838Z,15.99
2023-06-24T04:23:16.830Z,15.97
2023-06-24T04:24:16.856Z,15.93
2023-06-24T04:25:16.823Z,15.92
2023-06-24T04:26:16.787Z,15.88
2023-06-24T04:27:16.810Z,15.89
2023-06-24T04:28:16.813Z,15.89
2023-06-24T04:29:16.800Z,15.86
2023-06-24T04:30:16.736Z,15.88
2023-06-24T04:31:16.777Z,15.88
2023-06-24T04:32:16.732Z,15.88
2023-06-24T04:33:16.739Z,15.86
2023-06-24T04:34:16.710Z,15.85
2023-06-24T04:35:16.754Z,15.79
2023-06-24T04:36:16.680Z,15.78
2023-06-24T04:37:16.733Z,15.70
2023-06-24T04:38:16.678Z,15.72
2023-06-24T04:39:16.916Z,15.78
2023-06-24T04:40:16.630Z,15.85
2023-06-24T04:41:16.685Z,15.70
2023-06-24T04:42:16.635Z,15.76
2023-06-24T04:43:16.645Z,15.84
2023-06-24T04:44:16.589Z,15.89
2023-06-24T04:45:16.612Z,15.94
2023-06-24T04:46:16.586Z,16.06
2023-06-24T04:47:17.301Z,16.22
2023-06-24T04:48:16.562Z,16.38
2023-06-24T04:49:16.604Z,16.49
2023-06-24T04:50:16.559Z,16.55
2023-06-24T04:51:16.536Z,16.68
2023-06-24T04:52:16.500Z,16.86
2023-06-24T04:53:16.513Z,17.03
2023-06-24T04:54:16.534Z,17.50
2023-06-24T04:55:16.510Z,18.02
2023-06-24T04:56:16.494Z,18.83
2023-06-24T04:57:16.493Z,19.57
2023-06-24T04:58:16.464Z,20.15
2023-06-24T04:59:16.482Z,20.93
2023-06-24T05:00:16.483Z,21.19
2023-06-24T05:01:16.460Z,21.05
2023-06-24T05:02:16.404Z,20.66
2023-06-24T05:03:16.437Z,20.08
2023-06-24T05:04:16.401Z,19.65
2023-06-24T05:05:16.506Z,19.15
2023-06-24T05:06:16.364Z,18.86
2023-06-24T05:07:16.580Z,18.77
2023-06-24T05:08:16.338Z,18.52
2023-06-24T05:09:16.382Z,18.33
2023-06-24T05:10:16.331Z,18.07
2023-06-24T05:11:16.336Z,17.89
2023-06-24T05:12:16.327Z,17.70
2023-06-24T05:13:16.320Z,17.54
2023-06-24T05:14:16.302Z,17.46
2023-06-24T05:15:16.362Z,17.36
2023-06-24T05:16:16.306Z,17.33
2023-06-24T05:17:16.324Z,17.32
2023-06-24T05:18:16.270Z,17.32
2023-06-24T05:19:16.256Z,17.30
2023-06-24T05:20:16.198Z,17.28
2023-06-24T05:21:16.224Z,17.22
2023-06-24T05:22:16.189Z,17.18
2023-06-24T05:23:16.204Z,17.20
2023-06-24T05:24:16.188Z,17.14
2023-06-24T05:25:16.186Z,17.10
2023-06-24T05:26:16.132Z,17.03
2023-06-24T05:27:16.158Z,16.98
2023-06-24T05:28:17.087Z,16.95
2023-06-24T05:29:16.146Z,16.98
2023-06-24T05:30:16.137Z,16.98
2023-06-24T05:31:16.123Z,16.99
2023-06-24T05:32:16.079Z,17.00
2023-06-24T05:33:16.116Z,16.99
2023-06-24T05:34:16.061Z,16.95
2023-06-24T05:35:16.071Z,16.92
2023-06-24T05:36:16.035Z,16.92
2023-06-24T05:37:16.025Z,16.96
2023-06-24T05:38:16.016Z,16.96
2023-06-24T05:39:16.033Z,17.04
2023-06-24T05:40:15.997Z,17.13
2023-06-24T05:41:16.006Z,17.20
2023-06-24T05:42:15.995Z,17.26
2023-06-24T05:43:15.997Z,17.33
2023-06-24T05:44:15.936Z,17.44
2023-06-24T05:45:15.976Z,17.62
2023-06-24T05:46:15.970Z,17.73
2023-06-24T05:47:15.933Z,17.85
2023-06-24T05:48:15.937Z,17.92
2023-06-24T05:49:15.927Z,17.97
2023-06-24T05:50:15.867Z,18.04
2023-06-24T05:51:15.899Z,18.15
2023-06-24T05:52:15.847Z,18.25
2023-06-24T05:53:15.873Z,18.36
2023-06-24T05:54:15.867Z,18.37
2023-06-24T05:55:15.880Z,18.37
2023-06-24T05:56:15.834Z,18.39
2023-06-24T05:57:15.827Z,18.42
2023-06-24T05:58:15.788Z,18.37
2023-06-24T05:59:15.820Z,18.34
2023-06-24T06:00:15.813Z,18.28
2023-06-24T06:01:15.786Z,18.24
2023-06-24T06:02:15.792Z,18.22
2023-06-24T06:03:15.840Z,18.27
2023-06-24T06:04:15.772Z,18.28
2023-06-24T06:05:17.720Z,18.29
2023-06-24T06:06:15.711Z,18.24
2023-06-24T06:07:15.769Z,18.19
2023-06-24T06:08:15.663Z,18.17
2023-06-24T06:09:15.684Z,18.15
2023-06-24T06:10:15.664Z,18.19
2023-06-24T06:11:15.653Z,18.22
2023-06-24T06:12:15.657Z,18.28
2023-06-24T06:13:15.668Z,18.31
2023-06-24T06:14:15.621Z,18.37
2023-06-24T06:15:15.658Z,18.40
2023-06-24T06:16:15.697Z,18.47
2023-06-24T06:17:15.670Z,18.52
2023-06-24T06:18:15.588Z,18.62
2023-06-24T06:19:15.571Z,18.73
2023-06-24T06:20:15.571Z,18.79
2023-06-24T06:21:15.586Z,18.82
2023-06-24T06:22:15.592Z,18.83
2023-06-24T06:23:15.535Z,18.86
2023-06-24T06:24:15.545Z,18.84
2023-06-24T06:25:15.547Z,18.90
2023-06-24T06:26:15.522Z,18.94
2023-06-24T06:27:15.479Z,18.99
2023-06-24T06:28:15.479Z,19.02
2023-06-24T06:29:15.467Z,19.10
2023-06-24T06:30:15.515Z,19.14
2023-06-24T06:31:15.525Z,19.21
2023-06-24T06:32:15.439Z,19.31
2023-06-24T06:33:15.482Z,19.39
2023-06-24T06:34:15.480Z,19.40
2023-06-24T06:35:15.445Z,19.38
2023-06-24T06:36:15.463Z,19.38
2023-06-24T06:37:15.368Z,19.40
2023-06-24T06:38:15.417Z,19.42
2023-06-24T06:39:15.359Z,19.42
2023-06-24T06:40:15.371Z,19.46
2023-06-24T06:41:15.341Z,19.48
2023-06-24T06:42:15.367Z,19.48
2023-06-24T06:43:15.342Z,19.47
2023-06-24T06:44:15.302Z,19.55
2023-06-24T06:45:16.241Z,19.60
2023-06-24T06:46:15.347Z,19.66
2023-06-24T06:47:15.267Z,19.69
2023-06-24T06:48:15.262Z,19.73
2023-06-24T06:49:15.232Z,19.76
2023-06-24T06:50:15.314Z,19.78
2023-06-24T06:51:15.242Z,19.83
2023-06-24T06:52:18.056Z,19.83
2023-06-24T06:53:15.223Z,19.80
2023-06-24T06:54:15.216Z,19.78
2023-06-24T06:55:15.156Z,19.78
2023-06-24T06:56:15.270Z,19.83
2023-06-24T06:57:15.168Z,19.83
2023-06-24T06:58:15.196Z,19.79
2023-06-24T06:59:15.185Z,19.75
2023-06-24T07:00:15.273Z,19.72
2023-06-24T07:01:15.246Z,19.79
2023-06-24T07:02:15.187Z,19.84
2023-06-24T07:03:15.165Z,19.86
2023-06-24T07:04:15.135Z,19.88
2023-06-24T07:05:15.067Z,19.91
2023-06-24T07:06:15.099Z,20.00
2023-06-24T07:07:15.060Z,20.06
2023-06-24T07:08:15.107Z,20.09
2023-06-24T07:09:15.051Z,20.15
2023-06-24T07:10:15.024Z,20.20
2023-06-24T07:11:15.048Z,20.23
2023-06-24T07:12:15.036Z,20.28
2023-06-24T07:13:14.945Z,20.34
2023-06-24T07:14:15.005Z,20.38
2023-06-24T07:15:14.962Z,20.46
2023-06-24T07:16:14.964Z,20.50
2023-06-24T07:17:14.944Z,20.54
2023-06-24T07:18:14.974Z,20.59
2023-06-24T07:19:14.934Z,20.56
2023-06-24T07:20:14.962Z,20.56
2023-06-24T07:21:14.877Z,20.61
2023-06-24T07:22:14.923Z,20.64
2023-06-24T07:23:14.898Z,20.64
2023-06-24T07:24:15.568Z,20.64
2023-06-24T07:25:14.861Z,20.68
2023-06-24T07:26:16.823Z,20.66
2023-06-24T07:27:14.844Z,20.71
2023-06-24T07:28:14.834Z,20.72
2023-06-24T07:29:14.806Z,20.74
2023-06-24T07:30:14.787Z,20.74
2023-06-24T07:31:14.844Z,20.79
2023-06-24T07:32:14.810Z,20.87
2023-06-24T07:33:14.806Z,20.91
2023-06-24T07:34:14.775Z,20.95
2023-06-24T07:35:14.764Z,21.02
2023-06-24T07:36:14.727Z,21.08
2023-06-24T07:37:23.170Z,21.13
2023-06-24T07:38:15.734Z,21.14
2023-06-24T07:39:14.693Z,21.16
2023-06-24T07:40:14.724Z,21.14
2023-06-24T07:41:14.727Z,21.16
2023-06-24T07:42:15.450Z,21.19
2023-06-24T07:43:14.652Z,21.17
2023-06-24T07:44:14.681Z,21.19
2023-06-24T07:45:14.625Z,21.20
2023-06-24T07:46:14.711Z,21.16
2023-06-24T07:47:16.598Z,21.17
2023-06-24T07:48:14.627Z,21.17
2023-06-24T07:49:14.589Z,21.19
2023-06-24T07:50:14.623Z,21.17
2023-06-24T07:51:14.591Z,21.20
2023-06-24T07:52:14.605Z,21.24
2023-06-24T07:53:14.536Z,21.29
2023-06-24T07:54:14.600Z,21.34
2023-06-24T07:55:14.533Z,21.38
2023-06-24T07:56:14.539Z,21.42
2023-06-24T07:57:14.513Z,21.45
2023-06-24T07:58:14.512Z,21.51
2023-06-24T07:59:14.485Z,21.53
2023-06-24T08:00:14.543Z,21.56
2023-06-24T08:01:14.474Z,21.61
2023-06-24T08:02:14.462Z,21.67
2023-06-24T08:03:14.604Z,21.75
2023-06-24T08:04:14.525Z,21.83
2023-06-24T08:05:16.375Z,21.85
2023-06-24T08:06:14.435Z,21.92
2023-06-24T08:07:14.429Z,22.01
2023-06-24T08:08:14.402Z,22.09
2023-06-24T08:09:14.410Z,22.16
2023-06-24T08:10:14.373Z,22.25
2023-06-24T08:11:14.360Z,22.31
2023-06-24T08:12:14.339Z,22.34
2023-06-24T08:13:14.330Z,22.39
2023-06-24T08:14:14.350Z,22.39
2023-06-24T08:15:14.277Z,22.43
2023-06-24T08:16:14.297Z,22.47
2023-06-24T08:17:14.285Z,22.47
2023-06-24T08:18:14.282Z,22.46
2023-06-24T08:19:14.248Z,22.39
2023-06-24T08:20:14.248Z,22.41
2023-06-24T08:21:14.225Z,22.41
2023-06-24T08:22:14.255Z,22.44
2023-06-24T08:23:14.213Z,22.43
2023-06-24T08:24:14.224Z,22.41
2023-06-24T08:25:14.182Z,22.41
2023-06-24T08:26:17.530Z,22.41
2023-06-24T08:27:14.151Z,22.43
2023-06-24T08:28:14.157Z,22.49
2023-06-24T08:29:14.126Z,22.50
2023-06-24T08:30:14.174Z,22.57
2023-06-24T08:31:14.160Z,22.54
2023-06-24T08:32:14.130Z,22.52
2023-06-24T08:33:14.116Z,22.59
2023-06-24T08:34:14.104Z,22.67
2023-06-24T08:35:14.108Z,22.72
2023-06-24T08:36:14.111Z,22.80
2023-06-24T08:37:14.071Z,22.87
2023-06-24T08:38:14.077Z,22.93
2023-06-24T08:39:14.041Z,22.97
2023-06-24T08:40:14.061Z,22.96
2023-06-24T08:41:14.956Z,22.97
2023-06-24T08:42:14.059Z,23.01
2023-06-24T08:43:13.984Z,23.04
2023-06-24T08:44:14.004Z,23.04
2023-06-24T08:45:13.990Z,23.07
2023-06-24T08:46:13.960Z,23.09
2023-06-24T08:47:14.006Z,23.11
2023-06-24T08:48:14.126Z,23.12
2023-06-24T08:49:14.084Z,23.15
2023-06-24T08:50:13.938Z,23.12
2023-06-24T08:51:13.885Z,23.14
2023-06-24T08:52:13.923Z,23.12
2023-06-24T08:53:13.874Z,23.09
2023-06-24T08:54:13.885Z,23.14
2023-06-24T08:55:13.834Z,23.20
2023-06-24T08:56:13.868Z,23.05
2023-06-24T08:57:13.828Z,22.93
2023-06-24T08:58:13.850Z,22.90
2023-06-24T08:59:13.798Z,22.89
2023-06-24T09:00:13.882Z,22.90
2023-06-24T09:01:13.789Z,22.99
2023-06-24T09:02:14.073Z,23.02
2023-06-24T09:03:13.850Z,23.05
2023-06-24T09:04:13.782Z,23.11
2023-06-24T09:05:13.765Z,23.17
2023-06-24T09:06:13.785Z,23.20
2023-06-24T09:07:13.752Z,23.23
2023-06-24T09:08:13.735Z,23.27
2023-06-24T09:09:13.699Z,23.35
2023-06-24T09:10:13.720Z,23.39
2023-06-24T09:11:13.767Z,23.35
2023-06-24T09:12:15.796Z,23.40
2023-06-24T09:13:13.654Z,23.43
2023-06-24T09:14:13.676Z,23.47
2023-06-24T09:15:13.659Z,23.57
2023-06-24T09:16:13.645Z,23.64
2023-06-24T09:17:13.620Z,23.76
2023-06-24T09:18:13.627Z,23.83
2023-06-24T09:19:13.626Z,23.92
2023-06-24T09:20:13.602Z,23.98
2023-06-24T09:21:13.624Z,24.05
2023-06-24T09:22:13.612Z,24.10
2023-06-24T09:23:13.537Z,24.16
2023-06-24T09:24:13.633Z,24.19
2023-06-24T09:25:13.537Z,24.22
2023-06-24T09:26:13.532Z,24.24
2023-06-24T09:27:13.524Z,24.24
2023-06-24T09:28:13.544Z,24.24
2023-06-24T09:29:13.476Z,24.24
2023-06-24T09:30:13.472Z,24.27
2023-06-24T09:32:13.587Z,24.26
2023-06-24T09:33:13.538Z,24.23
2023-06-24T09:34:13.471Z,24.23
2023-06-24T09:35:13.429Z,24.22
2023-06-24T09:36:13.441Z,24.13
2023-06-24T09:37:13.384Z,24.13
2023-06-24T09:38:13.402Z,24.13
2023-06-24T09:39:28.891Z,24.08
2023-06-24T09:40:14.401Z,24.16
2023-06-24T09:41:14.728Z,24.20
2023-06-24T09:42:15.361Z,24.24
2023-06-24T09:43:13.332Z,24.32
2023-06-24T09:44:13.415Z,24.39
2023-06-24T09:45:13.343Z,24.44
2023-06-24T09:46:13.405Z,24.47
2023-06-24T09:47:13.280Z,24.45
2023-06-24T09:48:13.314Z,24.39
2023-06-24T09:49:13.306Z,24.29
2023-06-24T09:50:13.268Z,24.24
2023-06-24T09:51:13.235Z,24.34
2023-06-24T09:52:13.282Z,24.27
2023-06-24T09:53:13.222Z,24.35
2023-06-24T09:54:13.235Z,24.45
2023-06-24T09:55:13.201Z,24.52
2023-06-24T09:56:13.273Z,24.57
2023-06-24T09:57:13.324Z,24.61
2023-06-24T09:58:13.203Z,24.57
2023-06-24T09:59:13.151Z,24.61
2023-06-24T10:00:13.191Z,24.68
2023-06-24T10:01:13.201Z,24.75
2023-06-24T10:02:13.193Z,24.79
2023-06-24T10:03:13.286Z,24.77
2023-06-24T10:04:13.874Z,24.82
2023-06-24T10:05:13.113Z,24.76
2023-06-24T10:06:13.124Z,24.82
2023-06-24T10:07:15.097Z,24.90
2023-06-24T10:08:13.072Z,24.92
2023-06-24T10:09:13.959Z,24.92
2023-06-24T10:10:13.108Z,24.94
2023-06-24T10:11:13.047Z,24.92
2023-06-24T10:12:13.051Z,24.95
2023-06-24T10:13:13.018Z,24.88
2023-06-24T10:14:13.063Z,24.83
2023-06-24T10:15:12.978Z,24.80
2023-06-24T10:16:12.984Z,24.76
2023-06-24T10:17:14.951Z,24.77
2023-06-24T10:18:16.622Z,24.83
2023-06-24T10:19:12.932Z,24.90
2023-06-24T10:20:12.949Z,24.97
2023-06-24T10:21:12.962Z,25.01
2023-06-24T10:22:13.952Z,25.01
2023-06-24T10:23:12.924Z,25.06
2023-06-24T10:24:14.020Z,24.98
2023-06-24T10:25:12.886Z,24.95
2023-06-24T10:26:12.897Z,24.98
2023-06-24T10:27:12.845Z,24.98
2023-06-24T10:28:12.876Z,25.02
2023-06-24T10:29:12.851Z,25.06
2023-06-24T10:30:12.866Z,25.00
2023-06-24T10:31:12.937Z,25.06
2023-06-24T10:32:12.842Z,25.05
2023-06-24T10:33:12.809Z,24.94
2023-06-24T10:34:12.796Z,24.92
2023-06-24T10:35:12.798Z,25.00
2023-06-24T10:36:12.783Z,25.00
2023-06-24T10:37:12.770Z,25.00
2023-06-24T10:38:12.762Z,24.98
2023-06-24T10:39:12.744Z,25.05
2023-06-24T10:40:12.836Z,25.09
2023-06-24T10:41:12.733Z,24.94
2023-06-24T10:42:12.742Z,25.00
2023-06-24T10:43:14.710Z,24.98
2023-06-24T10:44:13.271Z,24.98
2023-06-24T10:45:13.187Z,24.97
2023-06-24T10:46:12.692Z,24.97
2023-06-24T10:47:12.674Z,25.01
2023-06-24T10:48:14.585Z,25.05
2023-06-24T10:49:12.653Z,25.01
2023-06-24T10:50:12.609Z,25.00
2023-06-24T10:51:12.615Z,24.91
2023-06-24T10:52:12.580Z,24.97
2023-06-24T10:53:12.672Z,25.02
2023-06-24T10:54:12.602Z,25.06
2023-06-24T10:55:12.580Z,25.17
2023-06-24T10:56:12.562Z,25.24
2023-06-24T10:57:12.555Z,25.25
2023-06-24T10:58:12.933Z,25.24
2023-06-24T10:59:12.553Z,25.28
2023-06-24T11:00:12.503Z,25.35
2023-06-24T11:01:12.547Z,25.34
2023-06-24T11:02:12.518Z,25.35
2023-06-24T11:03:12.624Z,25.27
2023-06-24T11:04:12.868Z,25.25
2023-06-24T11:05:12.492Z,25.28
2023-06-24T11:06:12.429Z,25.34
2023-06-24T11:07:12.730Z,25.46
2023-06-24T11:08:14.401Z,25.56
2023-06-24T11:09:12.431Z,25.65
2023-06-24T11:10:13.729Z,25.67
2023-06-24T11:11:12.393Z,25.72
2023-06-24T11:12:12.374Z,25.72
2023-06-24T11:13:12.445Z,25.67
2023-06-24T11:14:12.367Z,25.71
2023-06-24T11:15:12.379Z,25.79
2023-06-24T11:16:12.364Z,25.90
2023-06-24T11:17:12.351Z,25.97
2023-06-24T11:18:12.454Z,26.04
2023-06-24T11:19:12.348Z,26.04
2023-06-24T11:20:12.355Z,26.04
2023-06-24T11:21:12.307Z,26.04
2023-06-24T11:22:12.332Z,25.98
2023-06-24T11:23:12.643Z,25.93
2023-06-24T11:24:12.299Z,25.98
2023-06-24T11:25:12.289Z,26.05
2023-06-24T11:26:12.229Z,26.06
2023-06-24T11:27:12.226Z,26.05
2023-06-24T11:28:12.214Z,25.93
2023-06-24T11:29:12.220Z,25.86
2023-06-24T11:30:12.173Z,25.74
2023-06-24T11:31:12.232Z,25.82
2023-06-24T11:32:12.158Z,25.99
2023-06-24T11:33:12.183Z,26.08
2023-06-24T11:34:12.129Z,26.20
2023-06-24T11:35:12.131Z,26.24
2023-06-24T11:36:12.107Z,26.18
2023-06-24T11:37:12.125Z,26.02
2023-06-24T11:38:12.110Z,25.91
2023-06-24T11:39:14.361Z,25.87
2023-06-24T11:40:12.100Z,25.84
2023-06-24T11:41:12.115Z,25.93
2023-06-24T11:42:12.083Z,26.05
2023-06-24T11:43:12.054Z,26.15
2023-06-24T11:44:12.035Z,26.11
2023-06-24T11:45:15.021Z,25.91
2023-06-24T11:46:11.989Z,25.84
2023-06-24T11:47:12.041Z,25.68
2023-06-24T11:48:12.012Z,25.54
2023-06-24T11:49:12.009Z,25.39
2023-06-24T11:50:12.013Z,25.30
2023-06-24T11:51:14.384Z,25.24
2023-06-24T11:52:11.992Z,25.20
2023-06-24T11:53:11.970Z,25.35
2023-06-24T11:54:11.907Z,25.54
2023-06-24T11:55:11.969Z,25.62
2023-06-24T11:56:11.961Z,25.53
2023-06-24T11:57:13.912Z,25.52
2023-06-24T11:58:11.896Z,25.59
2023-06-24T11:59:11.883Z,25.82
2023-06-24T12:00:11.844Z,26.01
2023-06-24T12:01:11.904Z,26.04
2023-06-24T12:02:11.832Z,25.99
2023-06-24T12:03:12.475Z,26.01
2023-06-24T12:04:11.972Z,25.93
2023-06-24T12:05:11.852Z,25.90
2023-06-24T12:06:11.788Z,25.84
2023-06-24T12:07:11.815Z,25.84
2023-06-24T12:08:11.835Z,25.84
2023-06-24T12:09:12.740Z,25.91
2023-06-24T12:10:11.791Z,26.01
2023-06-24T12:11:11.775Z,25.98
2023-06-24T12:12:11.790Z,25.91
2023-06-24T12:13:11.731Z,25.83
2023-06-24T12:14:11.723Z,25.68
2023-06-24T12:15:11.732Z,25.67
2023-06-24T12:16:11.679Z,25.84
2023-06-24T12:17:12.694Z,26.02
2023-06-24T12:18:11.673Z,26.11
2023-06-24T12:19:11.676Z,26.22
2023-06-24T12:20:11.640Z,26.21
2023-06-24T12:21:11.647Z,26.21
2023-06-24T12:22:11.655Z,26.09
2023-06-24T12:23:11.651Z,26.06
2023-06-24T12:24:12.314Z,26.01
2023-06-24T12:25:11.612Z,25.83
2023-06-24T12:26:11.583Z,25.74
2023-06-24T12:27:11.573Z,25.82
2023-06-24T12:28:11.598Z,25.99
2023-06-24T12:29:11.565Z,26.12
2023-06-24T12:30:11.609Z,26.25
2023-06-24T12:31:11.583Z,26.40
2023-06-24T12:32:11.556Z,26.52
2023-06-24T12:33:11.967Z,26.68
2023-06-24T12:34:11.500Z,26.80
2023-06-24T12:35:11.614Z,26.87
2023-06-24T12:36:11.474Z,26.69
2023-06-24T12:37:11.513Z,26.74
2023-06-24T12:38:11.494Z,26.83
2023-06-24T12:39:15.202Z,26.84
2023-06-24T12:40:12.568Z,26.92
2023-06-24T12:41:11.446Z,27.02
2023-06-24T12:42:11.447Z,27.10
2023-06-24T12:43:11.465Z,27.14
2023-06-24T12:44:11.422Z,27.17
2023-06-24T12:45:12.151Z,27.21
2023-06-24T12:46:11.389Z,27.29
2023-06-24T12:47:11.363Z,27.32
2023-06-24T12:48:11.339Z,27.32
2023-06-24T12:49:11.369Z,27.35
2023-06-24T12:50:11.345Z,27.41
2023-06-24T12:51:11.359Z,27.41
2023-06-24T12:52:11.357Z,27.32
2023-06-24T12:53:11.305Z,27.35